createdAt,value
2022-09-01T00:01:43.124Z,10.43
2022-09-01T00:04:12.722Z,8.52
2022-09-01T00:06:41.208Z,6.65
2022-09-01T00:09:10.422Z,7.70
2022-09-01T00:11:39.134Z,8.50
2022-09-01T00:14:09.901Z,7.47
2022-09-01T00:16:56.756Z,12.52
2022-09-01T00:19:25.182Z,9.93
2022-09-01T00:21:53.104Z,8.55
2022-09-01T00:24:21.156Z,7.82
2022-09-01T00:26:49.374Z,11.80
2022-09-01T00:29:17.223Z,6.20
2022-09-01T00:31:44.995Z,5.72
2022-09-01T00:34:14.008Z,9.63
2022-09-01T00:36:42.577Z,6.13
2022-09-01T00:39:10.376Z,8.32
2022-09-01T00:41:39.597Z,11.45
2022-09-01T00:44:09.048Z,6.40
2022-09-01T00:46:40.970Z,9.27
2022-09-01T00:49:22.502Z,7.63
2022-09-01T00:51:52.279Z,8.50
2022-09-01T00:54:41.000Z,8.45
2022-09-01T00:57:09.971Z,9.40
2022-09-01T00:59:39.980Z,7.80
2022-09-01T01:02:08.179Z,9.10
2022-09-01T01:04:37.232Z,11.70
2022-09-01T01:07:06.295Z,11.35
2022-09-01T01:09:35.179Z,7.78
2022-09-01T01:12:05.009Z,8.75
2022-09-01T01:14:33.924Z,11.77
2022-09-01T01:17:02.132Z,13.07
2022-09-01T01:19:46.162Z,9.98
2022-09-01T01:22:31.969Z,8.98
2022-09-01T01:25:02.292Z,12.85
2022-09-01T01:27:33.263Z,12.90
2022-09-01T01:30:12.159Z,12.35
2022-09-01T01:32:43.073Z,10.30
2022-09-01T01:35:14.658Z,5.97
2022-09-01T01:37:45.773Z,6.25
2022-09-01T01:40:16.665Z,5.57
2022-09-01T01:42:45.917Z,8.60
2022-09-01T01:45:17.281Z,10.80
2022-09-01T01:47:53.205Z,8.85
2022-09-01T01:50:23.669Z,5.90
2022-09-01T01:52:58.138Z,7.70
2022-09-01T01:55:31.126Z,6.32
2022-09-01T01:58:01.228Z,7.10
2022-09-01T02:00:32.159Z,9.50
2022-09-01T02:03:00.020Z,8.68
2022-09-01T02:05:28.867Z,7.85
2022-09-01T02:07:59.469Z,9.48
2022-09-01T02:10:31.503Z,6.95
2022-09-01T02:13:04.226Z,8.65
2022-09-01T02:15:32.923Z,6.97
2022-09-01T02:18:00.620Z,10.10
2022-09-01T02:20:33.484Z,7.30
2022-09-01T02:23:09.332Z,8.25
2022-09-01T02:25:53.912Z,11.57
2022-09-01T02:28:28.483Z,7.32
2022-09-01T02:30:57.626Z,7.05
2022-09-01T02:33:25.367Z,9.68
2022-09-01T02:35:54.780Z,12.32
2022-09-01T02:38:26.235Z,7.88
2022-09-01T02:40:55.759Z,13.40
2022-09-01T02:43:23.843Z,8.98
2022-09-01T02:45:57.481Z,6.55
2022-09-01T02:48:32.536Z,8.15
2022-09-01T02:51:01.857Z,8.98
2022-09-01T02:53:30.958Z,8.93
2022-09-01T02:55:59.975Z,10.52
2022-09-01T02:58:29.192Z,17.08
2022-09-01T03:00:57.730Z,12.75
2022-09-01T03:03:26.532Z,8.93
2022-09-01T03:05:56.245Z,9.73
2022-09-01T03:08:25.496Z,9.65
2022-09-01T03:10:54.852Z,8.73
2022-09-01T03:13:25.153Z,9.23
2022-09-01T03:15:52.877Z,7.53
2022-09-01T03:18:20.793Z,7.05
2022-09-01T03:20:51.224Z,9.30
2022-09-01T03:23:19.683Z,7.22
2022-09-01T03:25:49.308Z,8.60
2022-09-01T03:28:17.184Z,5.95
2022-09-01T03:30:48.984Z,7.68
2022-09-01T03:33:17.787Z,8.27
2022-09-01T03:35:47.119Z,5.32
2022-09-01T03:38:24.456Z,8.25
2022-09-01T03:40:58.872Z,5.88
2022-09-01T03:43:34.571Z,7.30
2022-09-01T03:46:06.329Z,7.45
2022-09-01T03:48:34.367Z,7.32
2022-09-01T03:51:03.375Z,8.85
2022-09-01T03:53:33.620Z,10.95
2022-09-01T03:56:04.091Z,7.97
2022-09-01T03:58:33.243Z,8.25
2022-09-01T04:01:02.939Z,6.70
2022-09-01T04:03:34.504Z,7.72
2022-09-01T04:06:04.264Z,10.45
2022-09-01T04:08:34.935Z,4.82
2022-09-01T04:11:05.367Z,7.47
2022-09-01T04:13:36.532Z,8.48
2022-09-01T04:16:10.635Z,7.60
2022-09-01T04:18:40.038Z,7.93
2022-09-01T04:21:09.025Z,6.85
2022-09-01T04:23:37.067Z,5.45
2022-09-01T04:26:10.075Z,7.43
2022-09-01T04:28:39.297Z,11.45
2022-09-01T04:31:09.058Z,9.90
2022-09-01T04:33:40.022Z,6.93
2022-09-01T04:36:15.069Z,7.15
2022-09-01T04:38:42.903Z,10.30
2022-09-01T04:41:17.407Z,6.82
2022-09-01T04:43:47.237Z,7.32
2022-09-01T04:46:15.661Z,6.90
2022-09-01T04:48:46.062Z,9.77
2022-09-01T04:51:16.265Z,8.35
2022-09-01T04:53:57.367Z,7.13
2022-09-01T04:56:26.799Z,6.43
2022-09-01T04:59:08.039Z,9.02
2022-09-01T05:01:43.223Z,9.18
2022-09-01T05:04:16.125Z,13.35
2022-09-01T05:06:44.923Z,8.43
2022-09-01T05:09:14.145Z,7.97
2022-09-01T05:11:48.426Z,6.95
2022-09-01T05:14:22.932Z,7.50
2022-09-01T05:16:54.126Z,8.95
2022-09-01T05:19:25.816Z,6.90
2022-09-01T05:21:57.924Z,7.80
2022-09-01T05:24:38.542Z,6.63
2022-09-01T05:27:12.355Z,13.35
2022-09-01T05:29:45.740Z,9.48
2022-09-01T05:32:14.104Z,13.35
2022-09-01T05:34:45.036Z,9.35
2022-09-01T05:37:16.180Z,12.75
2022-09-01T05:39:43.972Z,8.43
2022-09-01T05:42:12.191Z,11.82
2022-09-01T05:44:44.915Z,9.48
2022-09-01T05:47:20.805Z,8.88
2022-09-01T05:49:53.452Z,7.40
2022-09-01T05:52:26.390Z,7.68
2022-09-01T05:54:55.465Z,9.77
2022-09-01T05:57:34.349Z,7.88
2022-09-01T06:00:03.569Z,8.23
2022-09-01T06:02:40.924Z,9.30
2022-09-01T06:05:13.996Z,12.50
2022-09-01T06:07:42.864Z,14.13
2022-09-01T06:10:12.834Z,15.75
2022-09-01T06:12:40.881Z,9.68
2022-09-01T06:15:15.610Z,11.73
2022-09-01T06:17:46.274Z,9.63
2022-09-01T06:20:18.155Z,8.88
2022-09-01T06:22:46.004Z,9.40
2022-09-01T06:25:14.387Z,13.20
2022-09-01T06:27:45.947Z,11.07
2022-09-01T06:30:23.083Z,10.75
2022-09-01T06:32:56.993Z,11.88
2022-09-01T06:35:29.370Z,12.98
2022-09-01T06:37:58.358Z,10.38
2022-09-01T06:40:39.229Z,9.55
2022-09-01T06:43:08.222Z,9.63
2022-09-01T06:45:41.965Z,9.27
2022-09-01T06:48:09.901Z,11.45
2022-09-01T06:53:32.837Z,9.63
2022-09-01T06:56:04.353Z,9.55
2022-09-01T06:58:33.208Z,10.07
2022-09-01T07:01:01.111Z,12.07
2022-09-01T07:03:28.796Z,11.20
2022-09-01T07:09:38.562Z,12.45
2022-09-01T07:12:24.805Z,15.38
2022-09-01T07:17:43.174Z,14.13
2022-09-01T07:20:28.769Z,15.43
2022-09-01T07:23:04.499Z,19.60
2022-09-01T07:28:40.403Z,15.13
2022-09-01T07:39:50.315Z,18.35
2022-09-01T07:42:58.960Z,10.82
2022-09-01T07:45:47.425Z,10.75
2022-09-01T07:48:36.636Z,12.50
2022-09-01T07:53:56.561Z,19.58
2022-09-01T07:56:26.601Z,9.95
2022-09-01T07:58:54.436Z,11.43
2022-09-01T08:01:25.752Z,12.73
2022-09-01T08:03:55.206Z,15.52
2022-09-01T08:06:24.736Z,12.82
2022-09-01T08:08:57.043Z,13.23
2022-09-01T08:11:58.101Z,14.00
2022-09-01T08:14:18.152Z,13.02
2022-09-01T08:16:53.761Z,11.55
2022-09-01T08:19:21.839Z,10.85
2022-09-01T08:22:05.697Z,11.23
2022-09-01T08:24:49.795Z,12.48
2022-09-01T08:27:18.926Z,13.90
2022-09-01T08:29:46.626Z,13.07
2022-09-01T08:32:14.334Z,14.68
2022-09-01T08:34:43.463Z,14.05
2022-09-01T08:37:12.252Z,11.02
2022-09-01T08:39:42.404Z,11.70
2022-09-01T08:42:15.140Z,12.70
2022-09-01T08:44:47.602Z,12.25
2022-09-01T08:47:16.721Z,15.27
2022-09-01T08:49:47.261Z,13.65
2022-09-01T08:52:36.677Z,11.13
2022-09-01T08:55:08.246Z,10.18
2022-09-01T08:57:37.886Z,13.25
2022-09-01T09:00:18.140Z,10.75
2022-09-01T09:02:50.906Z,16.08
2022-09-01T09:05:27.133Z,13.73
2022-09-01T09:08:07.182Z,12.45
2022-09-01T09:10:39.033Z,10.25
2022-09-01T09:13:10.556Z,12.00
2022-09-01T09:15:43.418Z,11.50
2022-09-01T09:18:38.382Z,11.93
2022-09-01T09:21:07.013Z,10.68
2022-09-01T09:23:37.373Z,13.68
2022-09-01T09:26:07.949Z,12.85
2022-09-01T09:28:36.023Z,11.70
2022-09-01T09:31:14.737Z,11.43
2022-09-01T09:33:51.860Z,12.38
2022-09-01T09:36:25.524Z,11.82
2022-09-01T09:39:04.598Z,10.43
2022-09-01T09:41:33.014Z,10.38
2022-09-01T09:44:02.379Z,11.07
2022-09-01T09:46:36.426Z,10.00
2022-09-01T09:49:09.974Z,12.60
2022-09-01T09:51:38.059Z,15.27
2022-09-01T09:54:14.477Z,9.40
2022-09-01T09:56:44.391Z,9.20
2022-09-01T09:59:45.789Z,14.52
2022-09-01T10:02:22.266Z,10.70
2022-09-01T10:04:57.105Z,11.80
2022-09-01T10:07:28.345Z,9.93
2022-09-01T10:09:57.360Z,14.52
2022-09-01T10:12:25.494Z,9.07
2022-09-01T10:14:55.409Z,11.90
2022-09-01T10:17:26.793Z,9.18
2022-09-01T10:19:57.543Z,9.05
2022-09-01T10:22:25.928Z,10.30
2022-09-01T10:24:53.671Z,10.27
2022-09-01T10:27:23.479Z,10.32
2022-09-01T10:30:12.103Z,8.75
2022-09-01T10:32:49.256Z,10.85
2022-09-01T10:35:23.629Z,8.43
2022-09-01T10:37:52.058Z,12.43
2022-09-01T10:40:30.306Z,10.70
2022-09-01T10:43:05.394Z,9.15
2022-09-01T10:45:34.286Z,8.63
2022-09-01T10:48:14.819Z,15.90
2022-09-01T10:50:47.093Z,7.75
2022-09-01T10:53:38.068Z,9.00
2022-09-01T10:56:19.255Z,9.65
2022-09-01T11:02:23.058Z,8.45
2022-09-01T11:05:00.663Z,8.45
2022-09-01T11:07:57.955Z,10.65
2022-09-01T11:10:32.438Z,15.95
2022-09-01T11:13:10.267Z,9.43
2022-09-01T11:15:39.883Z,10.27
2022-09-01T11:18:09.819Z,9.63
2022-09-01T11:20:39.355Z,9.80
2022-09-01T11:23:12.153Z,10.35
2022-09-01T11:25:41.571Z,9.45
2022-09-01T11:28:24.045Z,7.55
2022-09-01T11:30:55.163Z,9.15
2022-09-01T11:33:29.639Z,8.88
2022-09-01T11:36:00.102Z,7.30
2022-09-01T11:38:29.777Z,10.13
2022-09-01T11:40:58.007Z,8.40
2022-09-01T11:43:27.172Z,8.77
2022-09-01T11:46:00.317Z,9.07
2022-09-01T11:48:28.044Z,9.45
2022-09-01T11:50:59.424Z,9.10
2022-09-01T11:53:27.715Z,8.00
2022-09-01T11:55:57.911Z,7.55
2022-09-01T11:58:34.466Z,9.55
2022-09-01T12:01:12.956Z,7.55
2022-09-01T12:03:41.148Z,6.75
2022-09-01T12:06:10.304Z,6.72
2022-09-01T12:08:39.828Z,7.35
2022-09-01T12:11:10.313Z,6.10
2022-09-01T12:13:38.986Z,6.25
2022-09-01T12:16:17.946Z,8.00
2022-09-01T12:18:47.373Z,6.55
2022-09-01T12:21:20.329Z,5.05
2022-09-01T12:23:48.333Z,6.15
2022-09-01T12:26:20.071Z,5.28
2022-09-01T12:28:49.660Z,6.55
2022-09-01T12:31:19.956Z,4.60
2022-09-01T12:33:48.188Z,5.65
2022-09-01T12:36:21.513Z,5.47
2022-09-01T12:38:49.461Z,6.40
2022-09-01T12:41:29.030Z,5.40
2022-09-01T12:43:56.923Z,5.38
2022-09-01T12:46:37.159Z,5.57
2022-09-01T12:49:17.247Z,4.88
2022-09-01T12:51:48.551Z,6.35
2022-09-01T12:54:17.558Z,4.75
2022-09-01T12:56:51.030Z,8.27
2022-09-01T12:59:35.746Z,4.35
2022-09-01T13:02:15.108Z,5.32
2022-09-01T13:04:42.998Z,5.22
2022-09-01T13:07:10.643Z,6.30
2022-09-01T13:09:38.843Z,4.07
2022-09-01T13:12:19.144Z,5.13
2022-09-01T13:14:47.255Z,5.28
2022-09-01T13:17:15.959Z,5.68
2022-09-01T13:19:43.637Z,5.25
2022-09-01T13:22:11.625Z,5.53
2022-09-01T13:24:40.111Z,4.68
2022-09-01T13:27:23.588Z,7.15
2022-09-01T13:29:53.300Z,6.13
2022-09-01T13:32:22.354Z,4.10
2022-09-01T13:34:51.945Z,4.40
2022-09-01T13:37:20.148Z,5.40
2022-09-01T13:39:48.357Z,4.82
2022-09-01T13:42:16.438Z,6.20
2022-09-01T13:44:44.546Z,4.60
2022-09-01T13:47:30.071Z,3.83
2022-09-01T13:50:07.666Z,5.45
2022-09-01T13:52:37.996Z,7.20
2022-09-01T13:55:06.073Z,8.70
2022-09-01T13:57:36.526Z,4.30
2022-09-01T14:00:05.668Z,8.07
2022-09-01T14:02:39.347Z,3.63
2022-09-01T14:05:07.259Z,5.05
2022-09-01T14:07:34.943Z,8.55
2022-09-01T14:10:02.710Z,8.00
2022-09-01T14:12:32.027Z,5.10
2022-09-01T14:15:17.510Z,5.55
2022-09-01T14:17:49.128Z,6.72
2022-09-01T14:20:18.262Z,6.60
2022-09-01T14:22:46.310Z,4.03
2022-09-01T14:25:14.533Z,7.03
2022-09-01T14:27:42.858Z,6.60
2022-09-01T14:30:14.421Z,4.55
2022-09-01T14:32:42.129Z,5.35
2022-09-01T14:35:11.721Z,3.80
2022-09-01T14:37:40.069Z,3.53
2022-09-01T14:40:08.577Z,6.78
2022-09-01T14:42:37.120Z,5.68
2022-09-01T14:45:04.968Z,6.38
2022-09-01T14:47:32.633Z,5.70
2022-09-01T14:50:02.600Z,6.70
2022-09-01T14:52:31.764Z,3.80
2022-09-01T14:54:59.638Z,5.05
2022-09-01T14:57:29.074Z,3.67
2022-09-01T14:59:57.107Z,3.50
2022-09-01T15:02:25.247Z,3.97
2022-09-01T15:04:53.107Z,4.15
2022-09-01T15:07:20.789Z,6.45
2022-09-01T15:09:49.732Z,3.92
2022-09-01T15:12:17.640Z,3.05
2022-09-01T15:14:45.488Z,7.50
2022-09-01T15:17:13.171Z,4.28
2022-09-01T15:19:41.061Z,4.75
2022-09-01T15:22:12.821Z,3.97
2022-09-01T15:24:40.495Z,3.10
2022-09-01T15:27:11.299Z,4.32
2022-09-01T15:29:44.796Z,3.83
2022-09-01T15:32:20.750Z,6.18
2022-09-01T15:34:55.392Z,2.75
2022-09-01T15:37:23.147Z,5.38
2022-09-01T15:39:50.804Z,4.82
2022-09-01T15:42:20.112Z,3.50
2022-09-01T15:44:48.807Z,4.15
2022-09-01T15:47:16.543Z,6.20
2022-09-01T15:49:44.467Z,3.40
2022-09-01T15:52:12.456Z,3.30
2022-09-01T15:54:40.439Z,3.55
2022-09-01T15:57:08.958Z,3.80
2022-09-01T15:59:40.004Z,3.47
2022-09-01T16:02:08.224Z,4.72
2022-09-01T16:04:36.607Z,3.15
2022-09-01T16:07:04.549Z,3.88
2022-09-01T16:09:32.507Z,3.80
2022-09-01T16:12:00.288Z,3.72
2022-09-01T16:14:28.437Z,4.05
2022-09-01T16:17:03.298Z,4.07
2022-09-01T16:19:34.385Z,4.78
2022-09-01T16:22:05.807Z,9.55
2022-09-01T16:24:39.482Z,5.45
2022-09-01T16:27:08.748Z,12.00
2022-09-01T16:29:44.625Z,4.15
2022-09-01T16:32:14.760Z,5.30
2022-09-01T16:34:46.626Z,7.80
2022-09-01T16:37:20.652Z,4.38
2022-09-01T16:39:50.596Z,4.95
2022-09-01T16:42:26.053Z,4.47
2022-09-01T16:44:58.804Z,3.00
2022-09-01T16:47:34.427Z,6.35
2022-09-01T16:50:06.197Z,4.10
2022-09-01T16:52:38.393Z,4.15
2022-09-01T16:55:16.365Z,4.10
2022-09-01T16:57:49.821Z,5.63
2022-09-01T17:00:28.751Z,4.68
2022-09-01T17:03:03.943Z,4.47
2022-09-01T17:05:34.385Z,5.40
2022-09-01T17:08:08.168Z,4.40
2022-09-01T17:10:42.056Z,5.03
2022-09-01T17:13:17.190Z,3.95
2022-09-01T17:15:48.025Z,4.28
2022-09-01T17:18:22.456Z,6.40
2022-09-01T17:20:57.875Z,4.03
2022-09-01T17:23:28.931Z,4.28
2022-09-01T17:26:01.643Z,4.18
2022-09-01T17:28:33.572Z,3.90
2022-09-01T17:31:06.149Z,2.85
2022-09-01T17:33:41.865Z,4.88
2022-09-01T17:36:14.083Z,3.40
2022-09-01T17:38:48.048Z,5.25
2022-09-01T17:41:23.260Z,2.90
2022-09-01T17:43:55.387Z,4.88
2022-09-01T17:46:28.334Z,6.45
2022-09-01T17:49:01.840Z,8.23
2022-09-01T17:51:31.588Z,6.22
2022-09-01T17:54:06.961Z,4.53
2022-09-01T17:56:38.225Z,4.38
2022-09-01T17:59:10.429Z,8.65
2022-09-01T18:01:43.538Z,5.15
2022-09-01T18:04:26.276Z,4.35
2022-09-01T18:06:59.456Z,8.93
2022-09-01T18:09:29.132Z,7.75
2022-09-01T18:12:00.657Z,4.10
2022-09-01T18:14:30.908Z,3.88
2022-09-01T18:17:01.642Z,4.78
2022-09-01T18:19:36.272Z,5.05
2022-09-01T18:22:05.830Z,3.50
2022-09-01T18:24:35.328Z,4.28
2022-09-01T18:27:03.056Z,4.18
2022-09-01T18:29:32.040Z,6.63
2022-09-01T18:32:05.432Z,6.88
2022-09-01T18:34:41.776Z,4.85
2022-09-01T18:37:11.875Z,3.72
2022-09-01T18:39:44.773Z,6.85
2022-09-01T18:42:19.925Z,4.55
2022-09-01T18:44:50.830Z,4.50
2022-09-01T18:47:25.444Z,3.63
2022-09-01T18:50:00.300Z,3.88
2022-09-01T18:52:38.319Z,4.28
2022-09-01T18:55:11.200Z,4.03
2022-09-01T18:57:40.007Z,9.30
2022-09-01T19:00:16.995Z,4.95
2022-09-01T19:02:54.304Z,11.35
2022-09-01T19:05:32.788Z,4.43
2022-09-01T19:08:05.896Z,5.07
2022-09-01T19:10:36.322Z,3.85
2022-09-01T19:13:07.696Z,4.60
2022-09-01T19:15:38.868Z,3.97
2022-09-01T19:18:13.047Z,3.80
2022-09-01T19:20:47.311Z,4.72
2022-09-01T19:23:17.516Z,4.47
2022-09-01T19:25:45.868Z,5.60
2022-09-01T19:28:17.810Z,6.95
2022-09-01T19:30:47.982Z,9.27
2022-09-01T19:33:17.592Z,4.20
2022-09-01T19:35:47.800Z,3.95
2022-09-01T19:38:19.927Z,4.78
2022-09-01T19:40:49.029Z,8.57
2022-09-01T19:43:18.128Z,4.40
2022-09-01T19:45:55.988Z,12.25
2022-09-01T19:48:27.286Z,4.75
2022-09-01T19:50:59.911Z,5.45
2022-09-01T19:53:33.780Z,3.95
2022-09-01T19:56:04.752Z,5.75
2022-09-01T19:58:42.982Z,4.93
2022-09-01T20:01:12.711Z,4.65
2022-09-01T20:03:42.014Z,6.53
2022-09-01T20:06:12.846Z,5.70
2022-09-01T20:08:42.692Z,7.80
2022-09-01T20:11:13.227Z,5.00
2022-09-01T20:13:48.803Z,5.00
2022-09-01T20:16:23.804Z,5.07
2022-09-01T20:18:53.766Z,6.43
2022-09-01T20:21:23.097Z,6.50
2022-09-01T20:23:53.724Z,5.40
2022-09-01T20:26:23.272Z,4.80
2022-09-01T20:28:55.323Z,5.55
2022-09-01T20:31:27.852Z,7.18
2022-09-01T20:33:58.396Z,5.53
2022-09-01T20:36:30.120Z,6.85
2022-09-01T20:39:11.280Z,8.40
2022-09-01T20:41:42.847Z,4.93
2022-09-01T20:44:15.599Z,6.35
2022-09-01T20:46:43.379Z,5.25
2022-09-01T20:49:16.145Z,6.35
2022-09-01T20:51:48.925Z,6.22
2022-09-01T20:54:25.039Z,4.40
2022-09-01T20:56:57.389Z,5.72
2022-09-01T20:59:29.367Z,6.20
2022-09-01T21:01:59.208Z,9.10
2022-09-01T21:04:35.804Z,6.03
2022-09-01T21:07:09.117Z,5.90
2022-09-01T21:09:43.868Z,6.28
2022-09-01T21:12:20.264Z,6.50
2022-09-01T21:14:52.672Z,7.20
2022-09-01T21:17:25.748Z,7.97
2022-09-01T21:19:58.829Z,7.32
2022-09-01T21:22:28.132Z,5.60
2022-09-01T21:24:56.243Z,6.38
2022-09-01T21:27:25.158Z,6.30
2022-09-01T21:29:56.306Z,12.00
2022-09-01T21:32:23.969Z,6.00
2022-09-01T21:34:52.993Z,7.15
2022-09-01T21:37:22.385Z,6.68
2022-09-01T21:39:52.976Z,5.28
2022-09-01T21:42:21.744Z,6.32
2022-09-01T21:44:49.641Z,6.65
2022-09-01T21:47:17.683Z,5.47
2022-09-01T21:49:45.531Z,6.85
2022-09-01T21:52:13.370Z,6.90
2022-09-01T21:54:41.093Z,5.88
2022-09-01T21:57:10.085Z,6.88
2022-09-01T21:59:37.785Z,7.40
2022-09-01T22:02:06.892Z,7.90
2022-09-01T22:04:36.891Z,8.18
2022-09-01T22:07:05.285Z,4.70
2022-09-01T22:09:33.218Z,6.22
2022-09-01T22:12:00.871Z,6.28
2022-09-01T22:14:29.783Z,6.57
2022-09-01T22:17:01.075Z,6.63
2022-09-01T22:19:33.649Z,7.32
2022-09-01T22:22:02.095Z,5.57
2022-09-01T22:24:29.819Z,7.35
2022-09-01T22:26:57.508Z,6.05
2022-09-01T22:29:25.180Z,6.57
2022-09-01T22:31:54.324Z,6.55
2022-09-01T22:34:22.086Z,6.20
2022-09-01T22:36:50.331Z,6.95
2022-09-01T22:39:19.107Z,5.97
2022-09-01T22:41:50.056Z,6.15
2022-09-01T22:44:17.981Z,7.85
2022-09-01T22:46:45.946Z,5.05
2022-09-01T22:49:14.934Z,8.00
2022-09-01T22:51:43.659Z,6.70
2022-09-01T22:54:12.101Z,6.32
2022-09-01T22:56:40.411Z,5.80
2022-09-01T22:59:09.566Z,6.20
2022-09-01T23:01:39.596Z,7.25
2022-09-01T23:04:08.440Z,7.50
2022-09-01T23:06:39.461Z,6.60
2022-09-01T23:09:09.259Z,5.90
2022-09-01T23:11:36.897Z,7.88
2022-09-01T23:14:05.231Z,5.63
2022-09-01T23:16:33.592Z,7.60
2022-09-01T23:19:01.363Z,7.05
2022-09-01T23:21:30.312Z,6.15
2022-09-01T23:23:59.709Z,8.25
2022-09-01T23:26:46.169Z,5.75
2022-09-01T23:29:13.861Z,6.03
2022-09-01T23:31:41.598Z,4.65
2022-09-01T23:34:09.590Z,7.95
2022-09-01T23:36:37.369Z,5.43
2022-09-01T23:39:07.101Z,5.63
2022-09-01T23:41:36.809Z,4.82
2022-09-01T23:44:05.984Z,5.38
2022-09-01T23:46:35.100Z,5.18
2022-09-01T23:49:03.066Z,6.35
2022-09-01T23:51:31.729Z,5.20
2022-09-01T23:53:59.869Z,5.35
2022-09-01T23:56:29.545Z,8.80
2022-09-01T23:58:57.558Z,4.82
